sensor_id;sensor_type;location;lat;lon;timestamp;temperature;humidity
9446;DHT22;4761;49.490;10.908;2023-08-17T00:02:14;24.60;63.00
9446;DHT22;4761;49.490;10.908;2023-08-17T00:04:40;24.60;63.10
9446;DHT22;4761;49.490;10.908;2023-08-17T00:07:06;24.60;63.00
9446;DHT22;4761;49.490;10.908;2023-08-17T00:09:32;24.60;63.20
9446;DHT22;4761;49.490;10.908;2023-08-17T00:11:58;24.60;63.00
9446;DHT22;4761;49.490;10.908;2023-08-17T00:14:23;24.60;63.00
9446;DHT22;4761;49.490;10.908;2023-08-17T00:16:50;24.60;62.90
9446;DHT22;4761;49.490;10.908;2023-08-17T00:19:16;24.60;62.90
9446;DHT22;4761;49.490;10.908;2023-08-17T00:21:41;24.60;63.00
9446;DHT22;4761;49.490;10.908;2023-08-17T00:24:07;24.60;63.30
9446;DHT22;4761;49.490;10.908;2023-08-17T00:26:33;24.60;63.30
9446;DHT22;4761;49.490;10.908;2023-08-17T00:28:58;24.60;63.40
9446;DHT22;4761;49.490;10.908;2023-08-17T00:31:24;24.60;63.40
9446;DHT22;4761;49.490;10.908;2023-08-17T00:33:50;24.60;63.50
9446;DHT22;4761;49.490;10.908;2023-08-17T00:36:15;24.70;63.60
9446;DHT22;4761;49.490;10.908;2023-08-17T00:38:41;24.70;63.70
9446;DHT22;4761;49.490;10.908;2023-08-17T00:41:06;24.70;63.80
9446;DHT22;4761;49.490;10.908;2023-08-17T00:43:32;24.70;63.90
9446;DHT22;4761;49.490;10.908;2023-08-17T00:45:58;24.70;64.00
9446;DHT22;4761;49.490;10.908;2023-08-17T00:48:23;24.60;64.00
9446;DHT22;4761;49.490;10.908;2023-08-17T00:50:50;24.70;64.10
9446;DHT22;4761;49.490;10.908;2023-08-17T00:53:17;24.60;64.10
9446;DHT22;4761;49.490;10.908;2023-08-17T00:55:44;24.70;64.30
9446;DHT22;4761;49.490;10.908;2023-08-17T00:58:10;24.60;64.30
9446;DHT22;4761;49.490;10.908;2023-08-17T01:00:35;24.70;64.40
9446;DHT22;4761;49.490;10.908;2023-08-17T01:03:01;24.60;64.50
9446;DHT22;4761;49.490;10.908;2023-08-17T01:05:27;24.70;64.60
9446;DHT22;4761;49.490;10.908;2023-08-17T01:07:52;24.70;64.60
9446;DHT22;4761;49.490;10.908;2023-08-17T01:10:18;24.60;64.60
9446;DHT22;4761;49.490;10.908;2023-08-17T01:12:59;24.60;64.70
9446;DHT22;4761;49.490;10.908;2023-08-17T01:15:36;24.60;64.70
9446;DHT22;4761;49.490;10.908;2023-08-17T01:18:15;24.70;64.90
9446;DHT22;4761;49.490;10.908;2023-08-17T01:20:43;24.60;64.80
9446;DHT22;4761;49.490;10.908;2023-08-17T01:23:09;24.60;65.00
9446;DHT22;4761;49.490;10.908;2023-08-17T01:25:35;24.60;65.00
9446;DHT22;4761;49.490;10.908;2023-08-17T01:28:03;24.60;65.00
9446;DHT22;4761;49.490;10.908;2023-08-17T01:30:34;24.60;65.00
9446;DHT22;4761;49.490;10.908;2023-08-17T01:33:09;24.60;65.10
9446;DHT22;4761;49.490;10.908;2023-08-17T01:36:03;24.60;65.10
9446;DHT22;4761;49.490;10.908;2023-08-17T01:38:29;24.60;65.10
9446;DHT22;4761;49.490;10.908;2023-08-17T01:40:55;24.60;65.10
9446;DHT22;4761;49.490;10.908;2023-08-17T01:43:21;24.60;65.10
9446;DHT22;4761;49.490;10.908;2023-08-17T01:45:47;24.60;65.20
9446;DHT22;4761;49.490;10.908;2023-08-17T01:48:13;24.60;65.30
9446;DHT22;4761;49.490;10.908;2023-08-17T01:50:39;24.60;65.30
9446;DHT22;4761;49.490;10.908;2023-08-17T01:53:04;24.60;65.30
9446;DHT22;4761;49.490;10.908;2023-08-17T01:55:30;24.60;65.30
9446;DHT22;4761;49.490;10.908;2023-08-17T01:57:55;24.60;65.40
9446;DHT22;4761;49.490;10.908;2023-08-17T02:00:21;24.60;65.40
9446;DHT22;4761;49.490;10.908;2023-08-17T02:02:46;24.60;65.40
9446;DHT22;4761;49.490;10.908;2023-08-17T02:05:12;24.60;65.50
9446;DHT22;4761;49.490;10.908;2023-08-17T02:07:37;24.60;65.50
9446;DHT22;4761;49.490;10.908;2023-08-17T02:10:03;24.60;65.40
9446;DHT22;4761;49.490;10.908;2023-08-17T02:12:28;24.60;65.40
9446;DHT22;4761;49.490;10.908;2023-08-17T02:14:54;24.60;65.50
9446;DHT22;4761;49.490;10.908;2023-08-17T02:17:19;24.60;65.50
9446;DHT22;4761;49.490;10.908;2023-08-17T02:19:47;24.60;65.50
9446;DHT22;4761;49.490;10.908;2023-08-17T02:22:13;24.60;65.50
9446;DHT22;4761;49.490;10.908;2023-08-17T02:24:39;24.60;65.50
9446;DHT22;4761;49.490;10.908;2023-08-17T02:27:04;24.60;65.40
9446;DHT22;4761;49.490;10.908;2023-08-17T02:29:30;24.60;65.30
9446;DHT22;4761;49.490;10.908;2023-08-17T02:31:55;24.60;65.30
9446;DHT22;4761;49.490;10.908;2023-08-17T02:34:21;24.60;65.30
9446;DHT22;4761;49.490;10.908;2023-08-17T02:36:46;24.60;65.40
9446;DHT22;4761;49.490;10.908;2023-08-17T02:39:12;24.60;65.40
9446;DHT22;4761;49.490;10.908;2023-08-17T02:41:37;24.60;65.50
9446;DHT22;4761;49.490;10.908;2023-08-17T02:44:03;24.60;65.60
9446;DHT22;4761;49.490;10.908;2023-08-17T02:46:29;24.60;65.60
9446;DHT22;4761;49.490;10.908;2023-08-17T02:48:54;24.60;65.70
9446;DHT22;4761;49.490;10.908;2023-08-17T02:51:20;24.60;65.70
9446;DHT22;4761;49.490;10.908;2023-08-17T02:53:45;24.60;65.80
9446;DHT22;4761;49.490;10.908;2023-08-17T02:56:11;24.60;65.80
9446;DHT22;4761;49.490;10.908;2023-08-17T02:58:38;24.60;65.90
9446;DHT22;4761;49.490;10.908;2023-08-17T03:01:07;24.60;65.90
9446;DHT22;4761;49.490;10.908;2023-08-17T03:03:33;24.60;66.00
9446;DHT22;4761;49.490;10.908;2023-08-17T03:05:59;24.60;66.00
9446;DHT22;4761;49.490;10.908;2023-08-17T03:08:25;24.60;66.00
9446;DHT22;4761;49.490;10.908;2023-08-17T03:10:50;24.60;66.00
9446;DHT22;4761;49.490;10.908;2023-08-17T03:13:16;24.60;66.10
9446;DHT22;4761;49.490;10.908;2023-08-17T03:15:41;24.60;66.10
9446;DHT22;4761;49.490;10.908;2023-08-17T03:18:07;24.60;66.10
9446;DHT22;4761;49.490;10.908;2023-08-17T03:20:32;24.60;66.10
9446;DHT22;4761;49.490;10.908;2023-08-17T03:22:58;24.60;66.20
9446;DHT22;4761;49.490;10.908;2023-08-17T03:25:24;24.60;66.10
9446;DHT22;4761;49.490;10.908;2023-08-17T03:27:50;24.50;66.10
9446;DHT22;4761;49.490;10.908;2023-08-17T03:30:16;24.50;66.00
9446;DHT22;4761;49.490;10.908;2023-08-17T03:32:41;24.50;66.00
9446;DHT22;4761;49.490;10.908;2023-08-17T03:35:07;24.60;66.10
9446;DHT22;4761;49.490;10.908;2023-08-17T03:37:33;24.50;66.00
9446;DHT22;4761;49.490;10.908;2023-08-17T03:39:59;24.60;66.00
9446;DHT22;4761;49.490;10.908;2023-08-17T03:42:26;24.50;65.90
9446;DHT22;4761;49.490;10.908;2023-08-17T03:44:51;24.50;65.80
9446;DHT22;4761;49.490;10.908;2023-08-17T03:47:17;24.50;65.90
9446;DHT22;4761;49.490;10.908;2023-08-17T03:49:43;24.50;65.90
9446;DHT22;4761;49.490;10.908;2023-08-17T03:52:08;24.60;65.90
9446;DHT22;4761;49.490;10.908;2023-08-17T03:54:34;24.50;65.80
9446;DHT22;4761;49.490;10.908;2023-08-17T03:56:59;24.50;65.80
9446;DHT22;4761;49.490;10.908;2023-08-17T03:59:25;24.50;65.90
9446;DHT22;4761;49.490;10.908;2023-08-17T04:01:50;24.50;65.90
9446;DHT22;4761;49.490;10.908;2023-08-17T04:04:16;24.50;65.90
9446;DHT22;4761;49.490;10.908;2023-08-17T04:06:41;24.50;65.90
9446;DHT22;4761;49.490;10.908;2023-08-17T04:09:07;24.50;65.90
9446;DHT22;4761;49.490;10.908;2023-08-17T04:11:35;24.50;65.90
9446;DHT22;4761;49.490;10.908;2023-08-17T04:14:01;24.50;65.90
9446;DHT22;4761;49.490;10.908;2023-08-17T04:16:26;24.50;65.90
9446;DHT22;4761;49.490;10.908;2023-08-17T04:18:52;24.50;66.00
9446;DHT22;4761;49.490;10.908;2023-08-17T04:21:17;24.50;66.00
9446;DHT22;4761;49.490;10.908;2023-08-17T04:23:43;24.50;66.00
9446;DHT22;4761;49.490;10.908;2023-08-17T04:26:08;24.50;66.00
9446;DHT22;4761;49.490;10.908;2023-08-17T04:28:34;24.50;66.00
9446;DHT22;4761;49.490;10.908;2023-08-17T04:30:59;24.50;66.00
9446;DHT22;4761;49.490;10.908;2023-08-17T04:33:25;24.40;65.90
9446;DHT22;4761;49.490;10.908;2023-08-17T04:35:51;24.40;65.90
9446;DHT22;4761;49.490;10.908;2023-08-17T04:38:16;24.50;66.10
9446;DHT22;4761;49.490;10.908;2023-08-17T04:40:42;24.40;66.00
9446;DHT22;4761;49.490;10.908;2023-08-17T04:43:10;24.40;66.00
9446;DHT22;4761;49.490;10.908;2023-08-17T04:45:35;24.40;66.10
9446;DHT22;4761;49.490;10.908;2023-08-17T04:48:01;24.40;66.00
9446;DHT22;4761;49.490;10.908;2023-08-17T04:50:26;24.40;66.10
9446;DHT22;4761;49.490;10.908;2023-08-17T04:52:52;24.40;66.10
9446;DHT22;4761;49.490;10.908;2023-08-17T04:55:17;24.40;66.10
9446;DHT22;4761;49.490;10.908;2023-08-17T04:57:43;24.40;66.10
9446;DHT22;4761;49.490;10.908;2023-08-17T05:00:08;24.40;66.10
9446;DHT22;4761;49.490;10.908;2023-08-17T05:02:35;24.40;65.50
9446;DHT22;4761;49.490;10.908;2023-08-17T05:05:03;24.40;65.60
9446;DHT22;4761;49.490;10.908;2023-08-17T05:07:29;24.40;65.70
9446;DHT22;4761;49.490;10.908;2023-08-17T05:09:54;24.40;66.40
9446;DHT22;4761;49.490;10.908;2023-08-17T05:12:20;24.40;65.70
9446;DHT22;4761;49.490;10.908;2023-08-17T05:14:45;24.40;65.70
9446;DHT22;4761;49.490;10.908;2023-08-17T05:17:11;24.40;65.80
9446;DHT22;4761;49.490;10.908;2023-08-17T05:19:36;24.40;65.90
9446;DHT22;4761;49.490;10.908;2023-08-17T05:22:03;24.40;65.90
9446;DHT22;4761;49.490;10.908;2023-08-17T05:24:29;24.40;65.90
9446;DHT22;4761;49.490;10.908;2023-08-17T05:26:54;24.40;65.90
9446;DHT22;4761;49.490;10.908;2023-08-17T05:29:20;24.40;65.90
9446;DHT22;4761;49.490;10.908;2023-08-17T05:31:45;24.40;65.90
9446;DHT22;4761;49.490;10.908;2023-08-17T05:34:11;24.40;66.00
9446;DHT22;4761;49.490;10.908;2023-08-17T05:36:37;24.40;66.00
9446;DHT22;4761;49.490;10.908;2023-08-17T05:39:02;24.40;66.00
9446;DHT22;4761;49.490;10.908;2023-08-17T05:41:28;24.40;66.00
9446;DHT22;4761;49.490;10.908;2023-08-17T05:43:54;24.40;66.00
9446;DHT22;4761;49.490;10.908;2023-08-17T05:46:20;24.40;66.00
9446;DHT22;4761;49.490;10.908;2023-08-17T05:48:45;24.40;66.00
9446;DHT22;4761;49.490;10.908;2023-08-17T05:51:11;24.40;66.00
9446;DHT22;4761;49.490;10.908;2023-08-17T05:53:36;24.40;66.10
9446;DHT22;4761;49.490;10.908;2023-08-17T05:56:02;24.50;66.00
9446;DHT22;4761;49.490;10.908;2023-08-17T05:58:28;24.50;65.90
9446;DHT22;4761;49.490;10.908;2023-08-17T06:00:53;24.50;66.10
9446;DHT22;4761;49.490;10.908;2023-08-17T06:03:19;24.50;65.60
9446;DHT22;4761;49.490;10.908;2023-08-17T06:05:44;24.50;65.10
9446;DHT22;4761;49.490;10.908;2023-08-17T06:08:10;24.50;65.00
9446;DHT22;4761;49.490;10.908;2023-08-17T06:10:35;24.50;64.70
9446;DHT22;4761;49.490;10.908;2023-08-17T06:13:01;24.50;64.20
9446;DHT22;4761;49.490;10.908;2023-08-17T06:15:26;24.50;64.10
9446;DHT22;4761;49.490;10.908;2023-08-17T06:17:52;24.50;64.10
9446;DHT22;4761;49.490;10.908;2023-08-17T06:20:18;24.50;63.90
9446;DHT22;4761;49.490;10.908;2023-08-17T06:22:43;24.50;63.90
9446;DHT22;4761;49.490;10.908;2023-08-17T06:25:09;24.50;63.50
9446;DHT22;4761;49.490;10.908;2023-08-17T06:27:35;24.50;63.50
9446;DHT22;4761;49.490;10.908;2023-08-17T06:30:04;24.50;63.20
9446;DHT22;4761;49.490;10.908;2023-08-17T06:32:30;24.50;63.40
9446;DHT22;4761;49.490;10.908;2023-08-17T06:34:56;24.50;63.10
9446;DHT22;4761;49.490;10.908;2023-08-17T06:37:22;24.50;62.80
9446;DHT22;4761;49.490;10.908;2023-08-17T06:39:48;24.50;62.80
9446;DHT22;4761;49.490;10.908;2023-08-17T06:42:13;24.60;63.00
9446;DHT22;4761;49.490;10.908;2023-08-17T06:44:39;24.50;62.40
9446;DHT22;4761;49.490;10.908;2023-08-17T06:47:04;24.60;62.40
9446;DHT22;4761;49.490;10.908;2023-08-17T06:49:30;24.60;62.80
9446;DHT22;4761;49.490;10.908;2023-08-17T06:51:56;24.60;62.70
9446;DHT22;4761;49.490;10.908;2023-08-17T06:54:21;24.60;62.60
9446;DHT22;4761;49.490;10.908;2023-08-17T06:56:47;24.60;62.40
9446;DHT22;4761;49.490;10.908;2023-08-17T06:59:13;24.60;62.20
9446;DHT22;4761;49.490;10.908;2023-08-17T07:01:38;24.60;62.30
9446;DHT22;4761;49.490;10.908;2023-08-17T07:04:04;24.60;62.00
9446;DHT22;4761;49.490;10.908;2023-08-17T07:06:29;24.60;61.90
9446;DHT22;4761;49.490;10.908;2023-08-17T07:08:55;24.60;61.90
9446;DHT22;4761;49.490;10.908;2023-08-17T07:11:21;24.70;62.00
9446;DHT22;4761;49.490;10.908;2023-08-17T07:13:47;24.60;61.80
9446;DHT22;4761;49.490;10.908;2023-08-17T07:16:13;24.60;61.60
9446;DHT22;4761;49.490;10.908;2023-08-17T07:18:38;24.60;61.40
9446;DHT22;4761;49.490;10.908;2023-08-17T07:21:04;24.70;61.50
9446;DHT22;4761;49.490;10.908;2023-08-17T07:23:29;24.70;61.30
9446;DHT22;4761;49.490;10.908;2023-08-17T07:25:55;24.70;61.40
9446;DHT22;4761;49.490;10.908;2023-08-17T07:28:20;24.70;61.40
9446;DHT22;4761;49.490;10.908;2023-08-17T07:30:46;24.60;61.50
9446;DHT22;4761;49.490;10.908;2023-08-17T07:33:11;24.60;62.30
9446;DHT22;4761;49.490;10.908;2023-08-17T07:35:37;24.60;61.70
9446;DHT22;4761;49.490;10.908;2023-08-17T07:38:03;24.60;61.80
9446;DHT22;4761;49.490;10.908;2023-08-17T07:40:28;24.60;61.50
9446;DHT22;4761;49.490;10.908;2023-08-17T07:42:54;24.70;61.60
9446;DHT22;4761;49.490;10.908;2023-08-17T07:45:19;24.70;61.20
9446;DHT22;4761;49.490;10.908;2023-08-17T07:47:45;24.70;61.10
9446;DHT22;4761;49.490;10.908;2023-08-17T07:50:10;24.70;61.20
9446;DHT22;4761;49.490;10.908;2023-08-17T07:52:36;24.70;62.00
9446;DHT22;4761;49.490;10.908;2023-08-17T07:55:01;24.70;61.30
9446;DHT22;4761;49.490;10.908;2023-08-17T07:57:27;24.80;61.40
9446;DHT22;4761;49.490;10.908;2023-08-17T07:59:53;24.80;61.60
9446;DHT22;4761;49.490;10.908;2023-08-17T08:02:19;24.80;61.70
9446;DHT22;4761;49.490;10.908;2023-08-17T08:04:44;24.80;61.50
9446;DHT22;4761;49.490;10.908;2023-08-17T08:07:10;24.80;61.50
9446;DHT22;4761;49.490;10.908;2023-08-17T08:09:36;24.80;61.70
9446;DHT22;4761;49.490;10.908;2023-08-17T08:12:02;24.90;61.70
9446;DHT22;4761;49.490;10.908;2023-08-17T08:14:27;24.90;61.80
9446;DHT22;4761;49.490;10.908;2023-08-17T08:16:53;24.90;62.10
9446;DHT22;4761;49.490;10.908;2023-08-17T08:19:18;24.90;62.20
9446;DHT22;4761;49.490;10.908;2023-08-17T08:21:44;24.90;62.10
9446;DHT22;4761;49.490;10.908;2023-08-17T08:24:09;24.90;62.00
9446;DHT22;4761;49.490;10.908;2023-08-17T08:26:35;25.00;62.10
9446;DHT22;4761;49.490;10.908;2023-08-17T08:29:00;25.00;62.30
9446;DHT22;4761;49.490;10.908;2023-08-17T08:31:26;25.00;62.60
9446;DHT22;4761;49.490;10.908;2023-08-17T08:33:51;25.00;62.80
9446;DHT22;4761;49.490;10.908;2023-08-17T08:36:18;25.00;62.80
9446;DHT22;4761;49.490;10.908;2023-08-17T08:38:44;25.10;62.90
9446;DHT22;4761;49.490;10.908;2023-08-17T08:41:10;25.10;62.70
9446;DHT22;4761;49.490;10.908;2023-08-17T08:43:36;25.10;62.80
9446;DHT22;4761;49.490;10.908;2023-08-17T08:46:02;25.10;63.40
9446;DHT22;4761;49.490;10.908;2023-08-17T08:48:29;25.10;63.00
9446;DHT22;4761;49.490;10.908;2023-08-17T08:50:55;25.10;63.10
9446;DHT22;4761;49.490;10.908;2023-08-17T08:53:31;25.10;63.00
9446;DHT22;4761;49.490;10.908;2023-08-17T08:55:58;25.10;62.90
9446;DHT22;4761;49.490;10.908;2023-08-17T08:58:25;25.10;63.00
9446;DHT22;4761;49.490;10.908;2023-08-17T09:00:52;25.10;63.00
9446;DHT22;4761;49.490;10.908;2023-08-17T09:03:19;25.10;63.10
9446;DHT22;4761;49.490;10.908;2023-08-17T09:05:49;25.10;63.10
9446;DHT22;4761;49.490;10.908;2023-08-17T09:08:17;25.10;63.10
9446;DHT22;4761;49.490;10.908;2023-08-17T09:10:44;25.20;63.20
9446;DHT22;4761;49.490;10.908;2023-08-17T09:13:10;25.20;63.10
9446;DHT22;4761;49.490;10.908;2023-08-17T09:15:35;25.20;63.10
9446;DHT22;4761;49.490;10.908;2023-08-17T09:18:01;25.20;63.10
9446;DHT22;4761;49.490;10.908;2023-08-17T09:20:46;25.20;63.00
9446;DHT22;4761;49.490;10.908;2023-08-17T09:23:12;25.20;62.90
9446;DHT22;4761;49.490;10.908;2023-08-17T09:25:42;25.20;63.00
9446;DHT22;4761;49.490;10.908;2023-08-17T09:28:12;25.20;62.90
9446;DHT22;4761;49.490;10.908;2023-08-17T09:30:57;25.20;62.00
9446;DHT22;4761;49.490;10.908;2023-08-17T09:33:24;25.20;63.00
9446;DHT22;4761;49.490;10.908;2023-08-17T09:35:51;25.20;63.00
9446;DHT22;4761;49.490;10.908;2023-08-17T09:38:18;25.20;62.80
9446;DHT22;4761;49.490;10.908;2023-08-17T09:40:45;25.20;62.70
9446;DHT22;4761;49.490;10.908;2023-08-17T09:43:11;25.20;62.70
9446;DHT22;4761;49.490;10.908;2023-08-17T09:45:39;25.30;62.90
9446;DHT22;4761;49.490;10.908;2023-08-17T09:48:07;25.30;62.80
9446;DHT22;4761;49.490;10.908;2023-08-17T09:50:33;25.20;62.80
9446;DHT22;4761;49.490;10.908;2023-08-17T09:52:58;25.30;62.80
9446;DHT22;4761;49.490;10.908;2023-08-17T09:55:24;25.30;62.90
9446;DHT22;4761;49.490;10.908;2023-08-17T09:57:50;25.20;62.80
9446;DHT22;4761;49.490;10.908;2023-08-17T10:00:17;25.20;62.80
9446;DHT22;4761;49.490;10.908;2023-08-17T10:02:44;25.30;63.00
9446;DHT22;4761;49.490;10.908;2023-08-17T10:05:16;25.30;63.00
9446;DHT22;4761;49.490;10.908;2023-08-17T10:07:46;25.30;63.00
9446;DHT22;4761;49.490;10.908;2023-08-17T10:10:19;25.30;63.00
9446;DHT22;4761;49.490;10.908;2023-08-17T10:15:33;25.30;63.10
9446;DHT22;4761;49.490;10.908;2023-08-17T10:18:22;25.20;63.30
9446;DHT22;4761;49.490;10.908;2023-08-17T10:21:01;25.10;61.80
9446;DHT22;4761;49.490;10.908;2023-08-17T10:23:28;25.00;62.50
9446;DHT22;4761;49.490;10.908;2023-08-17T10:25:54;25.10;62.20
9446;DHT22;4761;49.490;10.908;2023-08-17T10:28:21;25.10;62.00
9446;DHT22;4761;49.490;10.908;2023-08-17T10:30:47;25.20;62.40
9446;DHT22;4761;49.490;10.908;2023-08-17T10:33:14;25.20;61.80
9446;DHT22;4761;49.490;10.908;2023-08-17T10:35:41;25.30;62.00
9446;DHT22;4761;49.490;10.908;2023-08-17T10:38:08;25.30;62.20
9446;DHT22;4761;49.490;10.908;2023-08-17T10:40:40;25.40;62.70
9446;DHT22;4761;49.490;10.908;2023-08-17T10:43:06;25.40;62.70
9446;DHT22;4761;49.490;10.908;2023-08-17T10:45:34;25.40;62.70
9446;DHT22;4761;49.490;10.908;2023-08-17T10:50:35;25.50;63.10
9446;DHT22;4761;49.490;10.908;2023-08-17T10:53:11;25.60;63.20
9446;DHT22;4761;49.490;10.908;2023-08-17T10:55:39;25.70;63.30
9446;DHT22;4761;49.490;10.908;2023-08-17T10:58:06;25.70;63.40
9446;DHT22;4761;49.490;10.908;2023-08-17T11:00:40;25.80;63.40
9446;DHT22;4761;49.490;10.908;2023-08-17T11:03:10;25.80;63.30
9446;DHT22;4761;49.490;10.908;2023-08-17T11:05:40;25.90;63.50
9446;DHT22;4761;49.490;10.908;2023-08-17T11:08:07;26.00;63.60
9446;DHT22;4761;49.490;10.908;2023-08-17T11:10:34;26.00;63.70
9446;DHT22;4761;49.490;10.908;2023-08-17T11:13:00;26.00;63.70
9446;DHT22;4761;49.490;10.908;2023-08-17T11:15:38;26.00;63.80
9446;DHT22;4761;49.490;10.908;2023-08-17T11:18:07;26.10;63.90
9446;DHT22;4761;49.490;10.908;2023-08-17T11:20:34;26.10;63.90
9446;DHT22;4761;49.490;10.908;2023-08-17T11:22:59;26.20;64.10
9446;DHT22;4761;49.490;10.908;2023-08-17T11:25:26;26.20;64.10
9446;DHT22;4761;49.490;10.908;2023-08-17T11:27:56;26.20;64.30
9446;DHT22;4761;49.490;10.908;2023-08-17T11:30:22;26.20;64.40
9446;DHT22;4761;49.490;10.908;2023-08-17T11:32:51;26.20;64.40
9446;DHT22;4761;49.490;10.908;2023-08-17T11:35:17;26.20;64.40
9446;DHT22;4761;49.490;10.908;2023-08-17T11:37:43;26.30;64.60
9446;DHT22;4761;49.490;10.908;2023-08-17T11:40:11;26.30;64.70
9446;DHT22;4761;49.490;10.908;2023-08-17T11:42:37;26.30;64.70
9446;DHT22;4761;49.490;10.908;2023-08-17T11:45:03;26.30;64.80
9446;DHT22;4761;49.490;10.908;2023-08-17T11:47:29;26.30;64.80
9446;DHT22;4761;49.490;10.908;2023-08-17T11:50:04;26.40;65.00
9446;DHT22;4761;49.490;10.908;2023-08-17T11:52:30;26.40;65.00
9446;DHT22;4761;49.490;10.908;2023-08-17T11:54:58;26.40;65.10
9446;DHT22;4761;49.490;10.908;2023-08-17T11:57:24;26.40;65.10
9446;DHT22;4761;49.490;10.908;2023-08-17T11:59:54;26.40;65.10
9446;DHT22;4761;49.490;10.908;2023-08-17T12:02:23;26.40;65.10
9446;DHT22;4761;49.490;10.908;2023-08-17T12:04:53;26.40;65.20
9446;DHT22;4761;49.490;10.908;2023-08-17T12:07:19;26.50;65.30
9446;DHT22;4761;49.490;10.908;2023-08-17T12:09:48;26.50;65.30
9446;DHT22;4761;49.490;10.908;2023-08-17T12:12:24;26.50;65.40
9446;DHT22;4761;49.490;10.908;2023-08-17T12:14:49;26.50;65.40
9446;DHT22;4761;49.490;10.908;2023-08-17T12:17:16;26.50;65.30
9446;DHT22;4761;49.490;10.908;2023-08-17T12:19:42;26.50;65.50
9446;DHT22;4761;49.490;10.908;2023-08-17T12:22:08;26.60;65.50
9446;DHT22;4761;49.490;10.908;2023-08-17T12:24:33;26.50;65.50
9446;DHT22;4761;49.490;10.908;2023-08-17T12:27:03;26.60;65.50
9446;DHT22;4761;49.490;10.908;2023-08-17T12:29:28;26.60;65.50
9446;DHT22;4761;49.490;10.908;2023-08-17T12:31:57;26.60;65.60
9446;DHT22;4761;49.490;10.908;2023-08-17T12:34:22;26.60;65.70
9446;DHT22;4761;49.490;10.908;2023-08-17T12:36:49;26.60;65.70
9446;DHT22;4761;49.490;10.908;2023-08-17T12:39:15;26.60;65.80
9446;DHT22;4761;49.490;10.908;2023-08-17T12:41:40;26.60;65.70
9446;DHT22;4761;49.490;10.908;2023-08-17T12:44:06;26.60;65.70
9446;DHT22;4761;49.490;10.908;2023-08-17T12:46:32;26.70;65.80
9446;DHT22;4761;49.490;10.908;2023-08-17T12:48:59;26.60;65.70
9446;DHT22;4761;49.490;10.908;2023-08-17T12:51:25;26.50;65.90
9446;DHT22;4761;49.490;10.908;2023-08-17T12:53:50;26.40;66.30
9446;DHT22;4761;49.490;10.908;2023-08-17T12:56:16;26.20;63.50
9446;DHT22;4761;49.490;10.908;2023-08-17T12:58:42;26.20;61.30
9446;DHT22;4761;49.490;10.908;2023-08-17T13:01:07;26.30;61.40
9446;DHT22;4761;49.490;10.908;2023-08-17T13:03:33;26.30;61.90
9446;DHT22;4761;49.490;10.908;2023-08-17T13:05:58;26.40;62.00
9446;DHT22;4761;49.490;10.908;2023-08-17T13:08:24;26.40;62.10
9446;DHT22;4761;49.490;10.908;2023-08-17T13:10:50;26.50;62.90
9446;DHT22;4761;49.490;10.908;2023-08-17T13:13:15;26.40;63.30
9446;DHT22;4761;49.490;10.908;2023-08-17T13:15:41;26.40;63.50
9446;DHT22;4761;49.490;10.908;2023-08-17T13:18:07;26.40;63.60
9446;DHT22;4761;49.490;10.908;2023-08-17T13:20:33;26.40;63.70
9446;DHT22;4761;49.490;10.908;2023-08-17T13:22:58;26.40;63.70
9446;DHT22;4761;49.490;10.908;2023-08-17T13:25:24;26.40;63.80
9446;DHT22;4761;49.490;10.908;2023-08-17T13:27:49;26.40;63.90
9446;DHT22;4761;49.490;10.908;2023-08-17T13:30:15;26.50;64.10
9446;DHT22;4761;49.490;10.908;2023-08-17T13:32:40;26.40;64.00
9446;DHT22;4761;49.490;10.908;2023-08-17T13:35:06;26.50;64.20
9446;DHT22;4761;49.490;10.908;2023-08-17T13:37:32;26.40;64.10
9446;DHT22;4761;49.490;10.908;2023-08-17T13:39:58;26.40;64.20
9446;DHT22;4761;49.490;10.908;2023-08-17T13:42:24;26.30;64.30
9446;DHT22;4761;49.490;10.908;2023-08-17T13:44:49;26.30;64.50
9446;DHT22;4761;49.490;10.908;2023-08-17T13:47:15;26.30;64.60
9446;DHT22;4761;49.490;10.908;2023-08-17T13:49:40;26.20;64.70
9446;DHT22;4761;49.490;10.908;2023-08-17T13:52:06;26.20;64.80
9446;DHT22;4761;49.490;10.908;2023-08-17T13:54:32;26.20;64.90
9446;DHT22;4761;49.490;10.908;2023-08-17T13:56:57;26.20;65.00
9446;DHT22;4761;49.490;10.908;2023-08-17T13:59:23;26.10;65.00
9446;DHT22;4761;49.490;10.908;2023-08-17T14:01:48;26.10;65.10
9446;DHT22;4761;49.490;10.908;2023-08-17T14:04:14;26.10;65.10
9446;DHT22;4761;49.490;10.908;2023-08-17T14:06:40;26.10;65.20
9446;DHT22;4761;49.490;10.908;2023-08-17T14:09:07;26.10;65.20
9446;DHT22;4761;49.490;10.908;2023-08-17T14:11:32;26.00;65.10
9446;DHT22;4761;49.490;10.908;2023-08-17T14:13:58;26.00;65.20
9446;DHT22;4761;49.490;10.908;2023-08-17T14:16:23;25.90;64.80
9446;DHT22;4761;49.490;10.908;2023-08-17T14:18:49;25.90;64.40
9446;DHT22;4761;49.490;10.908;2023-08-17T14:21:15;25.90;64.10
9446;DHT22;4761;49.490;10.908;2023-08-17T14:23:40;25.90;63.90
9446;DHT22;4761;49.490;10.908;2023-08-17T14:26:06;25.90;63.70
9446;DHT22;4761;49.490;10.908;2023-08-17T14:28:32;25.90;63.70
9446;DHT22;4761;49.490;10.908;2023-08-17T14:30:57;25.90;63.70
9446;DHT22;4761;49.490;10.908;2023-08-17T14:33:23;25.90;63.70
9446;DHT22;4761;49.490;10.908;2023-08-17T14:35:49;25.90;63.70
9446;DHT22;4761;49.490;10.908;2023-08-17T14:38:14;25.90;64.50
9446;DHT22;4761;49.490;10.908;2023-08-17T14:40:44;25.90;63.80
9446;DHT22;4761;49.490;10.908;2023-08-17T14:43:11;25.90;63.80
9446;DHT22;4761;49.490;10.908;2023-08-17T14:45:42;25.80;63.70
9446;DHT22;4761;49.490;10.908;2023-08-17T14:48:08;25.90;63.90
9446;DHT22;4761;49.490;10.908;2023-08-17T14:50:34;25.80;63.90
9446;DHT22;4761;49.490;10.908;2023-08-17T14:53:00;25.80;63.90
9446;DHT22;4761;49.490;10.908;2023-08-17T14:55:32;25.80;63.90
9446;DHT22;4761;49.490;10.908;2023-08-17T14:57:58;25.80;64.00
9446;DHT22;4761;49.490;10.908;2023-08-17T15:00:24;25.80;64.00
9446;DHT22;4761;49.490;10.908;2023-08-17T15:02:50;25.80;64.00
9446;DHT22;4761;49.490;10.908;2023-08-17T15:05:15;25.80;64.10
9446;DHT22;4761;49.490;10.908;2023-08-17T15:07:41;25.80;64.20
9446;DHT22;4761;49.490;10.908;2023-08-17T15:10:07;25.80;64.30
9446;DHT22;4761;49.490;10.908;2023-08-17T15:12:33;25.80;64.40
9446;DHT22;4761;49.490;10.908;2023-08-17T15:14:58;25.70;64.40
9446;DHT22;4761;49.490;10.908;2023-08-17T15:17:24;25.80;64.50
9446;DHT22;4761;49.490;10.908;2023-08-17T15:19:49;25.80;64.40
9446;DHT22;4761;49.490;10.908;2023-08-17T15:22:15;25.80;64.40
9446;DHT22;4761;49.490;10.908;2023-08-17T15:24:41;25.70;64.30
9446;DHT22;4761;49.490;10.908;2023-08-17T15:27:08;25.70;64.50
9446;DHT22;4761;49.490;10.908;2023-08-17T15:29:34;25.60;64.70
9446;DHT22;4761;49.490;10.908;2023-08-17T15:31:59;25.60;65.00
9446;DHT22;4761;49.490;10.908;2023-08-17T15:34:25;25.60;65.40
9446;DHT22;4761;49.490;10.908;2023-08-17T15:36:50;25.60;66.10
9446;DHT22;4761;49.490;10.908;2023-08-17T15:39:16;25.70;66.20
9446;DHT22;4761;49.490;10.908;2023-08-17T15:41:41;25.70;66.10
9446;DHT22;4761;49.490;10.908;2023-08-17T15:44:07;25.70;66.10
9446;DHT22;4761;49.490;10.908;2023-08-17T15:46:33;25.70;66.00